sensor_id;sensor_type;location;lat;lon;timestamp;pressure;altitude;pressure_sealevel;temperature;humidity
68179;BME280;69812;42.632;23.440;2023-07-09T00:02:23;95483.44;;;16.52;59.74
68179;BME280;69812;42.632;23.440;2023-07-09T00:04:53;95493.13;;;16.34;60.69
68179;BME280;69812;42.632;23.440;2023-07-09T00:07:29;95475.78;;;16.10;62.56
68179;BME280;69812;42.632;23.440;2023-07-09T00:10:03;95480.47;;;16.06;63.36
68179;BME280;69812;42.632;23.440;2023-07-09T00:12:28;95483.34;;;15.95;64.30
68179;BME280;69812;42.632;23.440;2023-07-09T00:14:54;95484.06;;;15.71;64.69
68179;BME280;69812;42.632;23.440;2023-07-09T00:17:28;95465.38;;;15.51;65.32
68179;BME280;69812;42.632;23.440;2023-07-09T00:19:54;95476.63;;;15.33;66.32
68179;BME280;69812;42.632;23.440;2023-07-09T00:22:20;95478.16;;;15.18;67.44
68179;BME280;69812;42.632;23.440;2023-07-09T00:24:52;95463.75;;;14.89;68.38
68179;BME280;69812;42.632;23.440;2023-07-09T00:27:19;95477.25;;;14.83;68.91
68179;BME280;69812;42.632;23.440;2023-07-09T00:29:46;95465.50;;;14.63;69.80
68179;BME280;69812;42.632;23.440;2023-07-09T00:32:15;95475.03;;;14.62;70.56
68179;BME280;69812;42.632;23.440;2023-07-09T00:34:44;95468.97;;;14.71;70.09
68179;BME280;69812;42.632;23.440;2023-07-09T00:37:20;95458.78;;;14.52;70.42
68179;BME280;69812;42.632;23.440;2023-07-09T00:39:51;95470.88;;;14.51;70.80
68179;BME280;69812;42.632;23.440;2023-07-09T00:42:19;95455.09;;;14.36;71.05
68179;BME280;69812;42.632;23.440;2023-07-09T00:44:53;95463.50;;;14.38;71.39
68179;BME280;69812;42.632;23.440;2023-07-09T00:52:57;95470.00;;;14.07;73.57
68179;BME280;69812;42.632;23.440;2023-07-09T00:55:27;95458.91;;;13.96;73.41
68179;BME280;69812;42.632;23.440;2023-07-09T00:57:57;95461.44;;;13.88;73.99
68179;BME280;69812;42.632;23.440;2023-07-09T01:00:29;95462.56;;;13.76;74.00
68179;BME280;69812;42.632;23.440;2023-07-09T01:03:22;95474.03;;;13.64;74.90
68179;BME280;69812;42.632;23.440;2023-07-09T01:05:52;95454.66;;;13.60;74.91
68179;BME280;69812;42.632;23.440;2023-07-09T01:08:20;95461.94;;;13.92;74.06
68179;BME280;69812;42.632;23.440;2023-07-09T01:10:46;95483.22;;;13.76;74.79
68179;BME280;69812;42.632;23.440;2023-07-09T01:13:17;95482.38;;;13.58;75.26
68179;BME280;69812;42.632;23.440;2023-07-09T01:15:45;95475.34;;;13.50;75.69
68179;BME280;69812;42.632;23.440;2023-07-09T01:18:12;95485.28;;;13.45;76.60
68179;BME280;69812;42.632;23.440;2023-07-09T01:20:41;95480.19;;;13.53;77.53
68179;BME280;69812;42.632;23.440;2023-07-09T01:23:14;95476.44;;;13.47;78.40
68179;BME280;69812;42.632;23.440;2023-07-09T01:25:47;95474.09;;;13.54;78.54
68179;BME280;69812;42.632;23.440;2023-07-09T01:28:20;95477.03;;;13.22;78.95
68179;BME280;69812;42.632;23.440;2023-07-09T01:30:48;95479.94;;;13.09;80.51
68179;BME280;69812;42.632;23.440;2023-07-09T01:33:20;95455.53;;;13.03;80.77
68179;BME280;69812;42.632;23.440;2023-07-09T01:35:48;95467.63;;;12.93;81.41
68179;BME280;69812;42.632;23.440;2023-07-09T01:38:13;95462.28;;;12.57;83.04
68179;BME280;69812;42.632;23.440;2023-07-09T01:40:43;95467.16;;;12.60;83.62
68179;BME280;69812;42.632;23.440;2023-07-09T01:43:11;95467.81;;;12.72;83.72
68179;BME280;69812;42.632;23.440;2023-07-09T01:45:39;95458.59;;;12.60;84.14
68179;BME280;69812;42.632;23.440;2023-07-09T01:48:07;95467.44;;;12.38;84.45
68179;BME280;69812;42.632;23.440;2023-07-09T01:50:40;95478.25;;;12.31;85.62
68179;BME280;69812;42.632;23.440;2023-07-09T01:53:12;95477.31;;;12.23;85.95
68179;BME280;69812;42.632;23.440;2023-07-09T01:55:38;95480.56;;;12.25;86.08
68179;BME280;69812;42.632;23.440;2023-07-09T01:58:03;95473.50;;;11.98;86.53
68179;BME280;69812;42.632;23.440;2023-07-09T02:00:32;95496.38;;;12.01;86.90
68179;BME280;69812;42.632;23.440;2023-07-09T02:02:57;95479.69;;;11.85;87.32
68179;BME280;69812;42.632;23.440;2023-07-09T02:05:25;95490.47;;;11.69;88.44
68179;BME280;69812;42.632;23.440;2023-07-09T02:07:52;95493.75;;;11.71;89.47
68179;BME280;69812;42.632;23.440;2023-07-09T02:10:18;95491.97;;;11.72;90.51
68179;BME280;69812;42.632;23.440;2023-07-09T02:12:49;95487.09;;;11.69;90.51
68179;BME280;69812;42.632;23.440;2023-07-09T02:15:17;95497.63;;;11.66;90.59
68179;BME280;69812;42.632;23.440;2023-07-09T02:17:43;95498.22;;;11.79;90.42
68179;BME280;69812;42.632;23.440;2023-07-09T02:20:09;95503.50;;;11.78;90.39
68179;BME280;69812;42.632;23.440;2023-07-09T02:22:38;95493.41;;;11.55;90.63
68179;BME280;69812;42.632;23.440;2023-07-09T02:25:05;95502.59;;;11.48;90.82
68179;BME280;69812;42.632;23.440;2023-07-09T02:27:34;95503.50;;;11.37;91.30
68179;BME280;69812;42.632;23.440;2023-07-09T02:29:59;95498.44;;;11.26;91.05
68179;BME280;69812;42.632;23.440;2023-07-09T02:32:26;95511.69;;;11.21;91.43
68179;BME280;69812;42.632;23.440;2023-07-09T02:34:53;95508.34;;;11.09;92.26
68179;BME280;69812;42.632;23.440;2023-07-09T02:37:24;95511.03;;;11.08;92.82
68179;BME280;69812;42.632;23.440;2023-07-09T02:40:00;95514.88;;;11.14;92.58
68179;BME280;69812;42.632;23.440;2023-07-09T02:42:26;95520.50;;;11.07;92.60
68179;BME280;69812;42.632;23.440;2023-07-09T02:44:51;95512.84;;;10.86;92.85
68179;BME280;69812;42.632;23.440;2023-07-09T02:47:17;95517.03;;;10.87;93.55
68179;BME280;69812;42.632;23.440;2023-07-09T02:49:43;95519.38;;;10.79;93.44
68179;BME280;69812;42.632;23.440;2023-07-09T02:52:09;95521.84;;;10.81;94.01
68179;BME280;69812;42.632;23.440;2023-07-09T02:54:34;95522.72;;;10.70;93.97
68179;BME280;69812;42.632;23.440;2023-07-09T02:57:00;95522.78;;;10.59;94.04
68179;BME280;69812;42.632;23.440;2023-07-09T02:59:25;95526.56;;;10.76;94.36
68179;BME280;69812;42.632;23.440;2023-07-09T03:01:52;95530.09;;;10.63;94.64
68179;BME280;69812;42.632;23.440;2023-07-09T03:04:17;95525.19;;;10.60;94.48
68179;BME280;69812;42.632;23.440;2023-07-09T03:06:45;95534.53;;;10.61;94.55
68179;BME280;69812;42.632;23.440;2023-07-09T03:09:14;95536.16;;;10.62;94.87
68179;BME280;69812;42.632;23.440;2023-07-09T03:11:39;95546.50;;;10.72;95.10
68179;BME280;69812;42.632;23.440;2023-07-09T03:14:12;95532.41;;;10.87;95.13
68179;BME280;69812;42.632;23.440;2023-07-09T03:16:37;95547.75;;;10.99;95.14
68179;BME280;69812;42.632;23.440;2023-07-09T03:19:07;95537.94;;;11.04;95.59
68179;BME280;69812;42.632;23.440;2023-07-09T03:21:37;95544.81;;;11.24;95.32
68179;BME280;69812;42.632;23.440;2023-07-09T03:24:05;95543.69;;;11.17;95.44
68179;BME280;69812;42.632;23.440;2023-07-09T03:26:33;95549.25;;;11.22;95.85
68179;BME280;69812;42.632;23.440;2023-07-09T03:29:05;95551.00;;;11.43;95.78
68179;BME280;69812;42.632;23.440;2023-07-09T03:31:35;95548.50;;;11.31;96.08
68179;BME280;69812;42.632;23.440;2023-07-09T03:34:00;95549.97;;;11.55;95.66
68179;BME280;69812;42.632;23.440;2023-07-09T03:36:35;95535.00;;;11.39;95.51
68179;BME280;69812;42.632;23.440;2023-07-09T03:39:02;95538.19;;;11.62;95.74
68179;BME280;69812;42.632;23.440;2023-07-09T03:41:31;95540.44;;;11.77;94.87
68179;BME280;69812;42.632;23.440;2023-07-09T03:43:59;95542.28;;;12.05;94.24
68179;BME280;69812;42.632;23.440;2023-07-09T03:46:33;95539.75;;;12.25;92.78
68179;BME280;69812;42.632;23.440;2023-07-09T03:49:22;95548.47;;;12.43;91.85
68179;BME280;69812;42.632;23.440;2023-07-09T03:51:50;95528.94;;;12.50;91.02
68179;BME280;69812;42.632;23.440;2023-07-09T03:54:18;95538.25;;;13.00;89.17
68179;BME280;69812;42.632;23.440;2023-07-09T03:56:56;95545.59;;;15.25;86.76
68179;BME280;69812;42.632;23.440;2023-07-09T03:59:23;95539.69;;;17.90;74.47
68179;BME280;69812;42.632;23.440;2023-07-09T04:01:54;95545.25;;;19.63;64.22
68179;BME280;69812;42.632;23.440;2023-07-09T04:04:29;95553.91;;;21.93;53.42
68179;BME280;69812;42.632;23.440;2023-07-09T04:06:55;95558.25;;;22.89;52.38
68179;BME280;69812;42.632;23.440;2023-07-09T04:09:21;95556.22;;;24.43;45.48
68179;BME280;69812;42.632;23.440;2023-07-09T04:11:46;95560.19;;;25.48;42.78
68179;BME280;69812;42.632;23.440;2023-07-09T04:14:12;95563.34;;;26.67;39.95
68179;BME280;69812;42.632;23.440;2023-07-09T04:16:38;95559.41;;;27.89;38.00
68179;BME280;69812;42.632;23.440;2023-07-09T04:19:08;95551.50;;;28.70;35.72
68179;BME280;69812;42.632;23.440;2023-07-09T04:21:33;95566.63;;;29.71;33.27
68179;BME280;69812;42.632;23.440;2023-07-09T04:24:02;95568.06;;;30.40;31.90
68179;BME280;69812;42.632;23.440;2023-07-09T04:26:29;95570.13;;;30.60;31.96
68179;BME280;69812;42.632;23.440;2023-07-09T04:28:55;95566.59;;;31.03;30.80
68179;BME280;69812;42.632;23.440;2023-07-09T04:31:20;95563.78;;;30.61;30.63
68179;BME280;69812;42.632;23.440;2023-07-09T04:33:45;95572.13;;;30.47;31.71
68179;BME280;69812;42.632;23.440;2023-07-09T04:36:14;95580.25;;;31.17;30.83
68179;BME280;69812;42.632;23.440;2023-07-09T04:38:41;95581.84;;;31.93;29.04
68179;BME280;69812;42.632;23.440;2023-07-09T04:41:11;95578.31;;;30.58;29.76
68179;BME280;69812;42.632;23.440;2023-07-09T04:43:39;95580.22;;;30.63;30.99
68179;BME280;69812;42.632;23.440;2023-07-09T04:46:04;95579.25;;;30.69;30.84
68179;BME280;69812;42.632;23.440;2023-07-09T04:48:30;95578.47;;;31.60;29.50
68179;BME280;69812;42.632;23.440;2023-07-09T04:50:57;95564.78;;;29.88;31.16
68179;BME280;69812;42.632;23.440;2023-07-09T04:53:25;95585.41;;;29.07;33.42
68179;BME280;69812;42.632;23.440;2023-07-09T04:55:53;95564.06;;;27.28;35.81
68179;BME280;69812;42.632;23.440;2023-07-09T04:58:36;95572.31;;;26.11;38.86
68179;BME280;69812;42.632;23.440;2023-07-09T05:01:02;95564.31;;;25.12;41.60
68179;BME280;69812;42.632;23.440;2023-07-09T05:03:31;95560.28;;;24.32;43.51
68179;BME280;69812;42.632;23.440;2023-07-09T05:05:59;95574.41;;;23.20;46.45
68179;BME280;69812;42.632;23.440;2023-07-09T05:08:27;95582.50;;;21.67;50.61
68179;BME280;69812;42.632;23.440;2023-07-09T05:11:00;95566.47;;;21.20;52.44
68179;BME280;69812;42.632;23.440;2023-07-09T05:13:25;95591.47;;;20.65;54.30
68179;BME280;69812;42.632;23.440;2023-07-09T05:15:53;95584.69;;;20.56;54.84
68179;BME280;69812;42.632;23.440;2023-07-09T05:18:18;95584.22;;;20.30;56.09
68179;BME280;69812;42.632;23.440;2023-07-09T05:20:46;95590.25;;;20.31;55.05
68179;BME280;69812;42.632;23.440;2023-07-09T05:23:15;95578.91;;;20.39;55.45
68179;BME280;69812;42.632;23.440;2023-07-09T05:25:41;95593.69;;;20.89;53.25
68179;BME280;69812;42.632;23.440;2023-07-09T05:28:06;95599.06;;;21.52;51.01
68179;BME280;69812;42.632;23.440;2023-07-09T05:30:32;95595.69;;;21.87;50.59
68179;BME280;69812;42.632;23.440;2023-07-09T05:32:57;95586.53;;;22.04;50.58
68179;BME280;69812;42.632;23.440;2023-07-09T05:35:24;95586.16;;;22.49;48.56
68179;BME280;69812;42.632;23.440;2023-07-09T05:37:51;95592.56;;;22.53;48.78
68179;BME280;69812;42.632;23.440;2023-07-09T05:40:16;95583.16;;;22.65;47.43
68179;BME280;69812;42.632;23.440;2023-07-09T05:42:42;95575.22;;;23.27;47.48
68179;BME280;69812;42.632;23.440;2023-07-09T05:45:10;95588.22;;;25.79;41.57
68179;BME280;69812;42.632;23.440;2023-07-09T05:47:35;95590.38;;;29.03;35.77
68179;BME280;69812;42.632;23.440;2023-07-09T05:50:01;95592.72;;;31.91;30.51
68179;BME280;69812;42.632;23.440;2023-07-09T05:52:27;95588.13;;;33.49;27.71
68179;BME280;69812;42.632;23.440;2023-07-09T05:54:55;95589.69;;;35.11;26.18
68179;BME280;69812;42.632;23.440;2023-07-09T05:57:21;95578.56;;;36.45;23.37
68179;BME280;69812;42.632;23.440;2023-07-09T05:59:47;95578.63;;;36.64;22.70
68179;BME280;69812;42.632;23.440;2023-07-09T06:02:14;95575.31;;;38.17;21.26
68179;BME280;69812;42.632;23.440;2023-07-09T06:04:40;95572.66;;;38.95;21.06
68179;BME280;69812;42.632;23.440;2023-07-09T06:07:08;95572.50;;;39.99;19.12
68179;BME280;69812;42.632;23.440;2023-07-09T06:09:37;95566.06;;;40.75;18.29
68179;BME280;69812;42.632;23.440;2023-07-09T06:12:03;95557.91;;;41.53;17.39
68179;BME280;69812;42.632;23.440;2023-07-09T06:14:30;95561.81;;;42.50;17.32
68179;BME280;69812;42.632;23.440;2023-07-09T06:16:57;95567.06;;;43.31;16.56
68179;BME280;69812;42.632;23.440;2023-07-09T06:19:26;95554.16;;;43.94;15.51
68179;BME280;69812;42.632;23.440;2023-07-09T06:21:52;95554.31;;;44.75;15.83
68179;BME280;69812;42.632;23.440;2023-07-09T06:24:17;95562.97;;;44.93;14.75
68179;BME280;69812;42.632;23.440;2023-07-09T06:26:45;95560.91;;;44.49;15.10
68179;BME280;69812;42.632;23.440;2023-07-09T06:29:13;95552.69;;;45.27;13.93
68179;BME280;69812;42.632;23.440;2023-07-09T06:31:38;95551.06;;;46.34;13.40
68179;BME280;69812;42.632;23.440;2023-07-09T06:34:06;95551.28;;;46.99;13.13
68179;BME280;69812;42.632;23.440;2023-07-09T06:36:32;95535.97;;;47.30;12.45
68179;BME280;69812;42.632;23.440;2023-07-09T06:38:58;95547.44;;;47.00;12.43
68179;BME280;69812;42.632;23.440;2023-07-09T06:41:26;95539.03;;;43.23;14.33
68179;BME280;69812;42.632;23.440;2023-07-09T06:43:52;95545.63;;;42.20;16.08
68179;BME280;69812;42.632;23.440;2023-07-09T06:46:21;95547.06;;;43.77;14.75
68179;BME280;69812;42.632;23.440;2023-07-09T06:48:46;95550.28;;;45.09;13.82
68179;BME280;69812;42.632;23.440;2023-07-09T06:51:11;95538.34;;;45.70;13.02
68179;BME280;69812;42.632;23.440;2023-07-09T06:53:40;95541.56;;;46.59;12.76
68179;BME280;69812;42.632;23.440;2023-07-09T06:56:06;95535.59;;;46.54;12.66
68179;BME280;69812;42.632;23.440;2023-07-09T06:58:36;95537.03;;;46.83;13.14
68179;BME280;69812;42.632;23.440;2023-07-09T07:01:03;95537.63;;;45.14;13.32
68179;BME280;69812;42.632;23.440;2023-07-09T07:03:29;95539.03;;;44.55;13.22
68179;BME280;69812;42.632;23.440;2023-07-09T07:05:55;95539.16;;;45.59;12.64
68179;BME280;69812;42.632;23.440;2023-07-09T07:08:23;95541.19;;;47.19;12.63
68179;BME280;69812;42.632;23.440;2023-07-09T07:11:01;95541.75;;;44.42;13.12
68179;BME280;69812;42.632;23.440;2023-07-09T07:13:34;95528.44;;;41.65;15.92
68179;BME280;69812;42.632;23.440;2023-07-09T07:16:22;95533.47;;;42.44;15.68
68179;BME280;69812;42.632;23.440;2023-07-09T07:18:50;95524.41;;;39.26;16.74
68179;BME280;69812;42.632;23.440;2023-07-09T07:21:23;95525.41;;;41.76;15.88
68179;BME280;69812;42.632;23.440;2023-07-09T07:23:48;95531.44;;;43.49;14.11
68179;BME280;69812;42.632;23.440;2023-07-09T07:26:22;95531.19;;;44.90;13.42
68179;BME280;69812;42.632;23.440;2023-07-09T07:28:47;95525.41;;;45.64;12.22
68179;BME280;69812;42.632;23.440;2023-07-09T07:31:13;95525.47;;;46.50;12.04
68179;BME280;69812;42.632;23.440;2023-07-09T07:33:41;95521.25;;;45.54;12.48
68179;BME280;69812;42.632;23.440;2023-07-09T07:36:07;95510.13;;;44.83;12.23
68179;BME280;69812;42.632;23.440;2023-07-09T07:38:33;95506.69;;;45.75;12.61
68179;BME280;69812;42.632;23.440;2023-07-09T07:41:00;95519.72;;;47.80;10.83
68179;BME280;69812;42.632;23.440;2023-07-09T07:43:26;95515.91;;;49.69;9.82
68179;BME280;69812;42.632;23.440;2023-07-09T07:45:54;95514.28;;;51.04;8.98
68179;BME280;69812;42.632;23.440;2023-07-09T07:48:19;95508.13;;;51.58;8.46
68179;BME280;69812;42.632;23.440;2023-07-09T07:50:49;95502.63;;;51.29;8.57
68179;BME280;69812;42.632;23.440;2023-07-09T07:53:15;95507.78;;;51.63;9.44
68179;BME280;69812;42.632;23.440;2023-07-09T07:55:42;95513.56;;;52.36;8.52
68179;BME280;69812;42.632;23.440;2023-07-09T07:58:12;95506.47;;;48.24;10.57
68179;BME280;69812;42.632;23.440;2023-07-09T08:00:38;95512.78;;;47.82;10.97
68179;BME280;69812;42.632;23.440;2023-07-09T08:03:13;95507.75;;;47.58;10.45
68179;BME280;69812;42.632;23.440;2023-07-09T08:05:41;95499.31;;;42.69;13.88
68179;BME280;69812;42.632;23.440;2023-07-09T08:08:16;95497.88;;;42.00;14.60
68179;BME280;69812;42.632;23.440;2023-07-09T08:10:41;95489.84;;;42.84;14.35
68179;BME280;69812;42.632;23.440;2023-07-09T08:13:06;95492.50;;;44.24;13.55
68179;BME280;69812;42.632;23.440;2023-07-09T08:15:32;95479.16;;;43.21;13.88
68179;BME280;69812;42.632;23.440;2023-07-09T08:17:59;95479.28;;;39.68;16.19
68179;BME280;69812;42.632;23.440;2023-07-09T08:20:28;95483.56;;;39.07;16.91
68179;BME280;69812;42.632;23.440;2023-07-09T08:22:55;95477.16;;;39.48;17.17
68179;BME280;69812;42.632;23.440;2023-07-09T08:25:20;95475.16;;;40.02;16.14
68179;BME280;69812;42.632;23.440;2023-07-09T08:27:46;95472.91;;;39.24;17.59
68179;BME280;69812;42.632;23.440;2023-07-09T08:30:11;95482.59;;;39.65;16.37
68179;BME280;69812;42.632;23.440;2023-07-09T08:32:39;95473.50;;;40.50;16.59
68179;BME280;69812;42.632;23.440;2023-07-09T08:35:07;95476.47;;;40.57;16.38
68179;BME280;69812;42.632;23.440;2023-07-09T08:37:35;95467.63;;;40.56;16.38
68179;BME280;69812;42.632;23.440;2023-07-09T08:40:00;95478.16;;;41.78;15.41
68179;BME280;69812;42.632;23.440;2023-07-09T08:42:40;95477.88;;;40.19;17.00
68179;BME280;69812;42.632;23.440;2023-07-09T08:50:47;95462.72;;;35.44;21.07
68179;BME280;69812;42.632;23.440;2023-07-09T08:53:22;95465.69;;;37.05;19.47
68179;BME280;69812;42.632;23.440;2023-07-09T08:55:51;95455.13;;;37.27;20.25
68179;BME280;69812;42.632;23.440;2023-07-09T08:58:29;95463.66;;;36.45;19.63
68179;BME280;69812;42.632;23.440;2023-07-09T09:01:01;95467.34;;;32.37;25.23
68179;BME280;69812;42.632;23.440;2023-07-09T09:03:41;95473.00;;;28.37;31.79
68179;BME280;69812;42.632;23.440;2023-07-09T09:06:28;95470.56;;;28.18;31.95
68179;BME280;69812;42.632;23.440;2023-07-09T09:09:01;95466.78;;;26.91;33.80
68179;BME280;69812;42.632;23.440;2023-07-09T09:14:16;95475.50;;;25.82;34.82
68179;BME280;69812;42.632;23.440;2023-07-09T09:16:47;95466.25;;;25.25;37.30
68179;BME280;69812;42.632;23.440;2023-07-09T09:19:28;95475.16;;;25.42;38.75
68179;BME280;69812;42.632;23.440;2023-07-09T09:22:05;95460.28;;;24.86;39.55
68179;BME280;69812;42.632;23.440;2023-07-09T09:24:41;95471.94;;;25.40;39.49
68179;BME280;69812;42.632;23.440;2023-07-09T09:27:15;95479.22;;;24.94;38.34
68179;BME280;69812;42.632;23.440;2023-07-09T09:29:41;95476.34;;;24.96;42.14
68179;BME280;69812;42.632;23.440;2023-07-09T09:32:36;95477.66;;;25.55;38.57
68179;BME280;69812;42.632;23.440;2023-07-09T09:35:16;95466.09;;;25.13;39.32
68179;BME280;69812;42.632;23.440;2023-07-09T09:37:55;95466.81;;;24.51;40.94
68179;BME280;69812;42.632;23.440;2023-07-09T09:40:21;95470.78;;;24.86;41.03
68179;BME280;69812;42.632;23.440;2023-07-09T09:42:58;95453.91;;;24.43;40.25
68179;BME280;69812;42.632;23.440;2023-07-09T09:45:33;95464.41;;;24.75;40.25
68179;BME280;69812;42.632;23.440;2023-07-09T09:48:19;95452.84;;;24.83;41.38
68179;BME280;69812;42.632;23.440;2023-07-09T09:50:47;95446.25;;;25.42;40.41
68179;BME280;69812;42.632;23.440;2023-07-09T09:53:24;95451.63;;;25.84;39.29
68179;BME280;69812;42.632;23.440;2023-07-09T09:55:56;95448.66;;;25.62;37.30
68179;BME280;69812;42.632;23.440;2023-07-09T09:58:29;95449.44;;;25.26;38.52
68179;BME280;69812;42.632;23.440;2023-07-09T10:00:57;95459.69;;;25.52;40.41
68179;BME280;69812;42.632;23.440;2023-07-09T10:03:34;95451.13;;;25.75;41.53
68179;BME280;69812;42.632;23.440;2023-07-09T10:06:23;95457.28;;;25.69;37.59
68179;BME280;69812;42.632;23.440;2023-07-09T10:08:53;95455.09;;;25.29;39.05
68179;BME280;69812;42.632;23.440;2023-07-09T10:13:55;95449.03;;;25.04;39.37
68179;BME280;69812;42.632;23.440;2023-07-09T10:16:29;95439.03;;;25.37;39.16
68179;BME280;69812;42.632;23.440;2023-07-09T10:22:05;95437.66;;;25.90;40.59
68179;BME280;69812;42.632;23.440;2023-07-09T10:25:00;95442.34;;;26.00;37.85
68179;BME280;69812;42.632;23.440;2023-07-09T10:33:11;95441.34;;;26.01;38.06
68179;BME280;69812;42.632;23.440;2023-07-09T10:39:00;95428.50;;;25.93;35.25
68179;BME280;69812;42.632;23.440;2023-07-09T10:41:29;95431.91;;;26.12;36.45
68179;BME280;69812;42.632;23.440;2023-07-09T10:44:24;95436.41;;;26.23;37.78
68179;BME280;69812;42.632;23.440;2023-07-09T10:47:00;95426.16;;;26.03;37.87
68179;BME280;69812;42.632;23.440;2023-07-09T10:49:39;95428.97;;;26.20;34.89
68179;BME280;69812;42.632;23.440;2023-07-09T10:52:23;95412.34;;;25.89;35.90
68179;BME280;69812;42.632;23.440;2023-07-09T10:55:30;95421.72;;;26.15;36.68
68179;BME280;69812;42.632;23.440;2023-07-09T10:57:58;95424.28;;;26.22;35.09
68179;BME280;69812;42.632;23.440;2023-07-09T11:00:38;95422.09;;;26.19;35.99
68179;BME280;69812;42.632;23.440;2023-07-09T11:03:21;95426.81;;;25.80;36.69
68179;BME280;69812;42.632;23.440;2023-07-09T11:05:53;95420.50;;;25.32;36.87
68179;BME280;69812;42.632;23.440;2023-07-09T11:08:34;95416.47;;;25.67;36.87
68179;BME280;69812;42.632;23.440;2023-07-09T11:11:04;95423.91;;;25.88;36.39
68179;BME280;69812;42.632;23.440;2023-07-09T11:13:53;95426.97;;;25.85;35.22
68179;BME280;69812;42.632;23.440;2023-07-09T11:16:36;95424.28;;;25.92;34.49
68179;BME280;69812;42.632;23.440;2023-07-09T11:19:10;95420.97;;;25.96;35.29
68179;BME280;69812;42.632;23.440;2023-07-09T11:22:16;95423.44;;;26.10;35.12
68179;BME280;69812;42.632;23.440;2023-07-09T11:27:31;95411.84;;;25.99;33.72
68179;BME280;69812;42.632;23.440;2023-07-09T11:30:15;95426.75;;;26.05;33.84
68179;BME280;69812;42.632;23.440;2023-07-09T11:32:52;95424.19;;;25.98;34.30
68179;BME280;69812;42.632;23.440;2023-07-09T11:35:24;95426.47;;;25.95;34.58
68179;BME280;69812;42.632;23.440;2023-07-09T11:38:12;95409.66;;;25.96;35.12
68179;BME280;69812;42.632;23.440;2023-07-09T11:40:54;95415.19;;;26.06;34.79
68179;BME280;69812;42.632;23.440;2023-07-09T11:43:33;95410.78;;;25.88;35.04
68179;BME280;69812;42.632;23.440;2023-07-09T11:46:15;95394.56;;;25.54;34.08
68179;BME280;69812;42.632;23.440;2023-07-09T11:48:45;95401.16;;;25.64;35.65
68179;BME280;69812;42.632;23.440;2023-07-09T11:51:38;95412.22;;;25.84;33.50
68179;BME280;69812;42.632;23.440;2023-07-09T11:54:18;95394.69;;;25.78;34.75
68179;BME280;69812;42.632;23.440;2023-07-09T11:57:00;95387.63;;;25.41;35.52
68179;BME280;69812;42.632;23.440;2023-07-09T11:59:28;95398.38;;;25.58;37.70
68179;BME280;69812;42.632;23.440;2023-07-09T12:01:54;95404.53;;;25.82;36.33
68179;BME280;69812;42.632;23.440;2023-07-09T12:04:35;95397.41;;;26.20;35.99
68179;BME280;69812;42.632;23.440;2023-07-09T12:07:05;95388.03;;;26.36;35.45
68179;BME280;69812;42.632;23.440;2023-07-09T12:09:40;95380.63;;;26.44;34.21
68179;BME280;69812;42.632;23.440;2023-07-09T12:12:18;95392.75;;;26.46;34.55
68179;BME280;69812;42.632;23.440;2023-07-09T12:14:46;95384.84;;;26.46;34.80
68179;BME280;69812;42.632;23.440;2023-07-09T12:17:12;95397.38;;;26.62;36.21
68179;BME280;69812;42.632;23.440;2023-07-09T12:19:38;95386.53;;;26.70;34.51
68179;BME280;69812;42.632;23.440;2023-07-09T12:22:05;95386.50;;;26.58;34.01
68179;BME280;69812;42.632;23.440;2023-07-09T12:24:41;95379.16;;;26.49;35.53
68179;BME280;69812;42.632;23.440;2023-07-09T12:27:43;95384.28;;;26.43;33.88
68179;BME280;69812;42.632;23.440;2023-07-09T12:30:10;95387.84;;;26.37;34.46
68179;BME280;69812;42.632;23.440;2023-07-09T12:32:51;95374.88;;;26.24;33.99
68179;BME280;69812;42.632;23.440;2023-07-09T12:35:22;95377.59;;;26.59;35.37
68179;BME280;69812;42.632;23.440;2023-07-09T12:37:53;95366.38;;;26.64;34.88
68179;BME280;69812;42.632;23.440;2023-07-09T12:40:28;95373.38;;;26.70;35.19
68179;BME280;69812;42.632;23.440;2023-07-09T12:43:03;95358.13;;;26.60;34.44
68179;BME280;69812;42.632;23.440;2023-07-09T12:45:29;95371.28;;;26.84;34.63
68179;BME280;69812;42.632;23.440;2023-07-09T12:48:02;95361.66;;;26.78;34.63
68179;BME280;69812;42.632;23.440;2023-07-09T12:50:33;95356.75;;;27.05;35.21
68179;BME280;69812;42.632;23.440;2023-07-09T12:53:14;95347.81;;;26.94;35.55
68179;BME280;69812;42.632;23.440;2023-07-09T12:55:41;95355.06;;;26.87;34.98
68179;BME280;69812;42.632;23.440;2023-07-09T13:01:36;95358.81;;;26.91;33.61
68179;BME280;69812;42.632;23.440;2023-07-09T13:04:04;95350.00;;;26.62;35.64
68179;BME280;69812;42.632;23.440;2023-07-09T13:06:35;95350.75;;;26.39;33.54
68179;BME280;69812;42.632;23.440;2023-07-09T13:09:21;95351.28;;;26.59;34.57
68179;BME280;69812;42.632;23.440;2023-07-09T13:11:49;95353.19;;;27.11;34.43
68179;BME280;69812;42.632;23.440;2023-07-09T13:14:29;95343.09;;;27.20;33.42
68179;BME280;69812;42.632;23.440;2023-07-09T13:17:08;95346.38;;;27.39;33.83
68179;BME280;69812;42.632;23.440;2023-07-09T13:19:34;95345.06;;;27.24;33.42
68179;BME280;69812;42.632;23.440;2023-07-09T13:22:21;95360.97;;;27.30;35.17
68179;BME280;69812;42.632;23.440;2023-07-09T13:24:51;95360.63;;;27.14;34.54
68179;BME280;69812;42.632;23.440;2023-07-09T13:27:19;95349.16;;;27.32;34.22
68179;BME280;69812;42.632;23.440;2023-07-09T13:29:50;95351.19;;;27.42;34.71
68179;BME280;69812;42.632;23.440;2023-07-09T13:32:18;95344.59;;;27.28;34.47
68179;BME280;69812;42.632;23.440;2023-07-09T13:34:43;95369.47;;;26.96;35.57
68179;BME280;69812;42.632;23.440;2023-07-09T13:37:14;95358.59;;;26.81;33.91
68179;BME280;69812;42.632;23.440;2023-07-09T13:39:40;95348.72;;;27.00;34.67
68179;BME280;69812;42.632;23.440;2023-07-09T13:42:16;95359.59;;;27.15;33.69
68179;BME280;69812;42.632;23.440;2023-07-09T13:44:45;95353.09;;;26.94;36.48